Time;durP1;ratioP1;P1;durP2;ratioP2;P2;SDS_P1;SDS_P2;PMS_P1;PMS_P2;Temp;Humidity;BMP_temperature;BMP_pressure;BME280_temperature;BME280_humidity;BME280_pressure;Samples;Min_cycle;Max_cycle;Signal;HPM_P1;HPM_P2
2023/10/17 00:01:13;;;;;;;;;;;4.50;99.90;;;3.37;100.00;97813.88;5026965;28;1548;-73
2023/10/17 00:03:40;;;;;;;;;;;4.50;99.90;;;3.34;100.00;97815.63;5029025;28;1517;-72
2023/10/17 00:06:08;;;;;;;;;;;4.60;99.90;;;3.37;100.00;97817.31;5029321;28;1759;-72
2023/10/17 00:08:35;;;;;;;;;;;4.60;99.90;;;3.33;100.00;97810.50;5028801;28;1515;-72
2023/10/17 00:11:15;;;;;;;;;;;4.60;99.90;;;3.03;100.00;97811.63;5043225;28;2021;-71
2023/10/17 00:13:45;;;;;;;;;;;4.60;99.90;;;3.17;100.00;97814.06;5039401;28;1398;-72
2023/10/17 00:16:12;;;;;;;;;;;4.50;99.90;;;3.23;100.00;97807.19;5026301;28;1415;-72
2023/10/17 00:18:39;;;;;;;;;;;4.50;99.90;;;3.20;100.00;97809.78;5046245;28;1701;-72
2023/10/17 00:21:25;;;;;;;;;;;4.50;99.90;;;3.22;100.00;97815.75;5027239;28;1590;-72
2023/10/17 00:23:52;;;;;;;;;;;4.60;99.90;;;3.28;100.00;97818.25;5044126;28;1613;-72
2023/10/17 00:26:19;;;;;;;;;;;4.60;99.90;;;3.09;100.00;97817.56;5044912;28;1546;-72
2023/10/17 00:28:49;;;;;;;;;;;4.50;99.90;;;3.13;100.00;97815.84;5028744;28;1518;-72
2023/10/17 00:31:19;;;;;;;;;;;4.50;99.90;;;3.16;100.00;97812.38;5042363;28;1989;-72
2023/10/17 00:33:55;;;;;;;;;;;4.50;99.90;;;3.07;100.00;97819.28;5040461;28;1502;-72
2023/10/17 00:36:23;;;;;;;;;;;4.50;99.90;;;2.99;100.00;97815.09;5043900;28;1499;-72
2023/10/17 00:38:49;;;;;;;;;;;4.50;99.90;;;2.92;100.00;97810.03;5026175;28;1480;-71
2023/10/17 00:41:29;;;;;;;;;;;4.40;99.90;;;2.80;100.00;97805.00;5030558;28;1528;-72
2023/10/17 00:43:57;;;;;;;;;;;4.30;99.90;;;2.75;100.00;97803.34;5008372;28;1589;-70
2023/10/17 00:46:25;;;;;;;;;;;4.20;99.90;;;2.75;100.00;97793.94;5032404;28;1620;-73
2023/10/17 00:49:04;;;;;;;;;;;4.10;99.90;;;2.63;100.00;97794.03;5044256;28;1577;-71
2023/10/17 00:51:34;;;;;;;;;;;4.10;99.90;;;2.81;100.00;97790.47;5022820;28;1907;-72
2023/10/17 00:54:01;;;;;;;;;;;4.10;99.90;;;2.80;100.00;97788.75;5030306;28;1544;-72
2023/10/17 00:56:28;;;;;;;;;;;4.10;99.90;;;2.65;100.00;97790.59;5040098;28;1589;-71
2023/10/17 00:58:57;;;;;;;;;;;4.10;99.90;;;2.71;100.00;97795.69;5030283;28;1593;-72
2023/10/17 01:01:27;;;;;;;;;;;4.10;99.90;;;2.68;100.00;97798.25;5041639;28;1592;-71
2023/10/17 01:03:55;;;;;;;;;;;4.00;99.90;;;2.72;100.00;97799.94;5026778;28;1735;-72
2023/10/17 01:08:58;;;;;;;;;;;4.10;99.90;;;2.63;100.00;97794.88;5039690;28;1574;-71
2023/10/17 01:11:27;;;;;;;;;;;4.00;99.90;;;2.55;100.00;97794.06;5043411;28;1906;-71
2023/10/17 01:13:56;;;;;;;;;;;4.00;99.90;;;2.46;100.00;97796.69;5022681;28;1677;-72
2023/10/17 01:16:24;;;;;;;;;;;4.00;99.90;;;2.39;100.00;97797.59;5027514;28;1553;-71
2023/10/17 01:18:53;;;;;;;;;;;3.90;99.90;;;2.40;100.00;97799.31;5014284;28;1697;-72
2023/10/17 01:21:21;;;;;;;;;;;3.80;99.90;;;2.48;100.00;97797.53;5029337;28;1631;-72
2023/10/17 01:23:49;;;;;;;;;;;3.80;99.90;;;2.50;100.00;97794.09;5044823;28;1562;-70
2023/10/17 01:26:21;;;;;;;;;;;3.90;99.90;;;2.47;100.00;97795.84;5029726;28;1559;-72
2023/10/17 01:29:12;;;;;;;;;;;3.80;99.90;;;2.32;100.00;97791.66;5017724;28;1699;-72
2023/10/17 01:31:42;;;;;;;;;;;3.80;99.90;;;2.39;100.00;97780.50;5045677;28;1991;-72
2023/10/17 01:34:09;;;;;;;;;;;3.70;99.90;;;2.39;100.00;97780.50;5042772;28;1638;-71
2023/10/17 01:36:37;;;;;;;;;;;3.70;99.90;;;2.37;100.00;97777.09;5028857;28;1662;-72
2023/10/17 01:39:11;;;;;;;;;;;3.70;99.90;;;2.30;100.00;97783.13;5025219;28;1728;-72
2023/10/17 01:41:38;;;;;;;;;;;3.80;99.90;;;2.38;100.00;97775.44;5044145;28;1546;-72
2023/10/17 01:44:08;;;;;;;;;;;3.70;99.90;;;2.39;100.00;97782.22;5042663;28;1661;-71
2023/10/17 01:46:38;;;;;;;;;;;3.70;99.90;;;2.33;100.00;97770.34;5044477;28;1725;-72
2023/10/17 01:49:11;;;;;;;;;;;3.70;99.90;;;2.09;100.00;97766.19;5044759;28;1557;-71
2023/10/17 01:51:48;;;;;;;;;;;3.60;99.90;;;2.16;100.00;97757.63;5044785;28;1914;-72
2023/10/17 01:54:16;;;;;;;;;;;3.60;99.90;;;2.22;100.00;97749.91;5013039;28;1530;-72
2023/10/17 01:56:51;;;;;;;;;;;3.50;99.90;;;2.41;100.00;97747.22;5023844;28;1692;-72
2023/10/17 01:59:25;;;;;;;;;;;3.60;99.90;;;2.31;100.00;97751.56;5036723;28;1577;-72
2023/10/17 02:01:56;;;;;;;;;;;3.70;99.90;;;2.30;100.00;97754.97;5040746;28;1594;-71
2023/10/17 02:04:24;;;;;;;;;;;3.70;99.90;;;2.38;100.00;97755.78;5041120;28;1667;-72
2023/10/17 02:06:52;;;;;;;;;;;3.70;99.90;;;2.44;100.00;97752.31;5042738;28;1474;-73
2023/10/17 02:09:44;;;;;;;;;;;3.70;99.90;;;2.33;100.00;97762.66;5025810;28;1530;-72
2023/10/17 02:12:12;;;;;;;;;;;3.70;99.90;;;2.39;100.00;97765.16;5010994;28;1973;-71
2023/10/17 02:14:41;;;;;;;;;;;3.80;99.90;;;2.31;100.00;97769.50;5030490;28;1645;-72
2023/10/17 02:17:09;;;;;;;;;;;3.70;99.90;;;2.24;100.00;97773.81;5030592;28;1614;-73
2023/10/17 02:19:38;;;;;;;;;;;3.70;99.90;;;2.38;100.00;97773.72;5045051;28;1661;-72
2023/10/17 02:22:09;;;;;;;;;;;3.70;99.90;;;2.38;100.00;97780.56;5016523;28;1591;-72
2023/10/17 02:24:37;;;;;;;;;;;3.70;99.90;;;2.24;100.00;97776.34;5042856;28;1365;-72
2023/10/17 02:27:08;;;;;;;;;;;3.70;99.90;;;2.28;100.00;97780.59;5045740;28;1557;-71
2023/10/17 02:29:39;;;;;;;;;;;3.60;99.90;;;2.18;100.00;97784.06;5027208;28;1292;-72
2023/10/17 02:32:11;;;;;;;;;;;3.60;99.90;;;2.10;100.00;97785.84;5011998;28;1902;-72
2023/10/17 02:34:43;;;;;;;;;;;3.50;99.90;;;2.11;100.00;97786.69;5030361;28;1590;-72
2023/10/17 02:37:11;;;;;;;;;;;3.40;99.90;;;2.24;100.00;97788.31;5024158;28;1612;-72
2023/10/17 02:39:38;;;;;;;;;;;3.40;99.90;;;2.17;100.00;97792.63;5042781;28;1499;-72
2023/10/17 02:42:08;;;;;;;;;;;3.40;99.90;;;2.24;100.00;97783.19;5018426;28;1392;-72
2023/10/17 02:44:43;;;;;;;;;;;3.50;99.90;;;2.24;100.00;97783.19;5043938;28;1621;-71
2023/10/17 02:47:11;;;;;;;;;;;3.50;99.90;;;2.37;100.00;97779.69;5027201;28;1583;-71
2023/10/17 02:49:40;;;;;;;;;;;3.50;99.90;;;2.40;100.00;97781.38;5024789;28;1670;-73
2023/10/17 02:52:07;;;;;;;;;;;3.60;99.90;;;2.50;100.00;97778.72;5011696;28;1894;-71
2023/10/17 02:54:54;;;;;;;;;;;3.60;99.90;;;2.44;100.00;97775.34;5028796;28;1313;-72
2023/10/17 02:57:23;;;;;;;;;;;3.70;99.90;;;2.46;100.00;97768.53;5046348;28;1517;-73
2023/10/17 02:59:51;;;;;;;;;;;3.80;99.90;;;2.46;100.00;97761.72;5043284;28;1619;-71
2023/10/17 03:02:24;;;;;;;;;;;3.80;99.90;;;2.35;100.00;97760.06;5025108;28;1572;-72
2023/10/17 03:04:52;;;;;;;;;;;3.80;99.90;;;2.34;100.00;97766.06;5027998;28;1393;-72
2023/10/17 03:07:21;;;;;;;;;;;3.70;99.90;;;2.25;100.00;97756.72;5042562;28;1554;-70
2023/10/17 03:09:48;;;;;;;;;;;3.70;99.90;;;2.26;100.00;97754.16;5044582;28;1513;-72
2023/10/17 03:12:19;;;;;;;;;;;3.60;99.90;;;2.30;100.00;97753.28;5044516;28;1919;-73
2023/10/17 03:17:15;;;;;;;;;;;3.60;99.90;;;2.50;100.00;97739.47;5045336;28;1495;-71
2023/10/17 03:19:42;;;;;;;;;;;3.70;99.90;;;2.55;100.00;97742.81;5041803;28;1500;-70
2023/10/17 03:22:26;;;;;;;;;;;3.70;99.90;;;2.56;100.00;97741.13;5024958;28;1643;-72
2023/10/17 03:25:27;;;;;;;;;;;3.70;99.90;;;2.63;100.00;97733.38;5030933;28;1420;-71
2023/10/17 03:27:50;;;;;;;;;;;3.80;99.90;;;2.57;100.00;97724.88;5030371;28;1511;-72
2023/10/17 03:30:19;;;;;;;;;;;3.90;99.90;;;2.56;100.00;97725.75;5043171;28;1624;-71
2023/10/17 03:33:26;;;;;;;;;;;3.90;99.90;;;2.55;100.00;97718.91;5048508;28;1997;-72
2023/10/17 03:38:33;;;;;;;;;;;3.90;99.90;;;2.40;100.00;97728.44;5039455;28;1475;-70
2023/10/17 03:41:07;;;;;;;;;;;3.90;99.90;;;2.61;100.00;97713.75;5044048;28;1420;-72
2023/10/17 03:43:45;;;;;;;;;;;3.90;99.90;;;2.69;100.00;97717.94;5013815;28;1552;-72
2023/10/17 03:46:15;;;;;;;;;;;3.90;99.90;;;2.62;100.00;97718.00;5045005;28;1379;-72
2023/10/17 03:48:49;;;;;;;;;;;3.90;99.90;;;2.30;100.00;97714.84;5029042;28;1387;-71
2023/10/17 03:51:24;;;;;;;;;;;3.80;99.90;;;2.23;100.00;97714.91;5033118;28;1898;-72
2023/10/17 03:54:06;;;;;;;;;;;3.70;99.90;;;2.32;100.00;97719.09;5043903;28;1433;-72
2023/10/17 03:56:45;;;;;;;;;;;3.70;99.90;;;2.44;100.00;97713.88;5030908;28;1421;-72
2023/10/17 04:01:50;;;;;;;;;;;3.70;99.90;;;2.51;100.00;97710.44;5032122;28;1517;-72
2023/10/17 04:07:08;;;;;;;;;;;3.80;99.90;;;2.65;100.00;97703.47;5039774;28;1399;-71
2023/10/17 04:09:54;;;;;;;;;;;3.80;99.90;;;2.60;100.00;97717.16;5040817;28;1404;-72
2023/10/17 04:12:23;;;;;;;;;;;3.80;99.90;;;2.46;100.00;97720.72;5029970;28;1992;-71
2023/10/17 04:14:59;;;;;;;;;;;3.80;99.90;;;2.48;100.00;97723.25;5024892;28;1792;-72
2023/10/17 04:17:31;;;;;;;;;;;3.80;99.90;;;2.42;100.00;97719.03;5043351;28;1386;-72
2023/10/17 04:20:09;;;;;;;;;;;3.70;99.90;;;2.50;100.00;97724.09;5045799;28;1369;-72
2023/10/17 04:22:38;;;;;;;;;;;3.70;99.90;;;2.55;100.00;97730.00;5029562;28;1480;-71
2023/10/17 04:25:33;;;;;;;;;;;3.70;99.90;;;2.53;100.00;97728.31;5028237;28;1353;-72
2023/10/17 04:28:01;;;;;;;;;;;3.80;99.90;;;2.53;100.00;97731.72;5030878;28;1636;-72
2023/10/17 04:30:46;;;;;;;;;;;3.80;99.90;;;2.53;100.00;97731.72;5010356;28;1389;-72
2023/10/17 04:33:13;;;;;;;;;;;3.70;99.90;;;2.49;100.00;97730.09;5044303;28;1894;-71
2023/10/17 04:35:46;;;;;;;;;;;3.80;99.90;;;2.47;100.00;97729.25;5024612;28;1384;-73
2023/10/17 04:38:26;;;;;;;;;;;3.70;99.90;;;2.54;100.00;97733.44;5041033;28;1399;-73
2023/10/17 04:46:11;;;;;;;;;;;3.80;99.90;;;2.56;100.00;97736.00;5036945;28;1420;-72
2023/10/17 04:48:40;;;;;;;;;;;3.80;99.90;;;2.64;100.00;97737.63;5045221;28;1452;-72
2023/10/17 04:51:14;;;;;;;;;;;3.80;99.90;;;2.63;100.00;97735.09;5025846;28;1422;-72
2023/10/17 04:53:48;;;;;;;;;;;3.80;99.90;;;2.66;100.00;97733.34;5040169;28;1425;-72
2023/10/17 04:56:17;;;;;;;;;;;3.90;99.90;;;2.72;100.00;97738.41;5046469;28;1454;-73
2023/10/17 05:01:46;;;;;;;;;;;4.00;99.90;;;2.76;100.00;97736.69;5030583;28;1773;-72
2023/10/17 05:04:18;;;;;;;;;;;4.00;99.90;;;2.80;100.00;97734.94;5028851;28;1419;-70
2023/10/17 06:19:20;;;;;;;;;;;4.40;99.90;;;3.23;100.00;97717.41;5032391;28;1543;-72
2023/10/17 06:27:43;;;;;;;;;;;4.50;99.90;;;3.30;100.00;97725.88;5019743;28;1513;-73
2023/10/17 06:30:46;;;;;;;;;;;4.50;99.90;;;3.38;100.00;97728.38;5032647;28;1530;-71
2023/10/17 06:33:03;;;;;;;;;;;4.50;99.90;;;3.42;100.00;97728.31;5040391;28;1906;-71
2023/10/17 06:35:31;;;;;;;;;;;4.50;99.90;;;3.26;100.00;97725.06;5044050;28;1392;-72
2023/10/17 06:37:59;;;;;;;;;;;4.60;99.90;;;3.25;100.00;97728.50;5043931;28;1396;-71
2023/10/17 06:40:32;;;;;;;;;;;4.50;99.90;;;3.41;100.00;97728.31;5030408;28;1466;-73
2023/10/17 06:42:59;;;;;;;;;;;4.50;99.90;;;3.45;100.00;97732.56;5037320;28;1350;-73
2023/10/17 06:45:27;;;;;;;;;;;4.60;99.90;;;3.52;100.00;97731.63;5041330;28;1395;-72
2023/10/17 06:47:58;;;;;;;;;;;4.60;99.90;;;3.66;100.00;97732.28;5024675;28;1537;-71
2023/10/17 06:51:29;;;;;;;;;;;4.70;99.90;;;3.67;100.00;97734.00;5046545;28;1145;-73
2023/10/17 06:53:27;;;;;;;;;;;4.70;99.90;;;3.65;100.00;97722.03;5045166;28;1906;-72
2023/10/17 06:56:04;;;;;;;;;;;4.80;99.90;;;3.78;100.00;97728.72;5042746;28;1384;-72
2023/10/17 06:58:32;;;;;;;;;;;4.80;99.90;;;3.83;100.00;97726.06;5027278;28;1430;-73
2023/10/17 07:00:59;;;;;;;;;;;4.90;99.90;;;3.93;100.00;97722.53;5044569;28;1356;-72
2023/10/17 07:03:26;;;;;;;;;;;4.90;99.90;;;4.01;100.00;97718.13;5044239;28;1417;-73
2023/10/17 07:06:10;;;;;;;;;;;5.00;99.90;;;3.96;100.00;97719.91;5028382;28;1391;-73
2023/10/17 07:08:41;;;;;;;;;;;5.00;99.90;;;4.13;100.00;97724.81;5030236;28;1969;-72
2023/10/17 07:16:41;;;;;;;;;;;5.20;99.90;;;4.17;100.00;97711.91;5026615;28;1382;-73
2023/10/17 07:19:46;;;;;;;;;;;5.30;99.90;;;4.32;100.00;97715.13;5045131;28;1615;-74
2023/10/17 07:24:34;;;;;;;;;;;5.40;99.90;;;4.44;100.00;97727.75;5031170;28;4743;-73
2023/10/17 07:27:03;;;;;;;;;;;5.40;99.90;;;4.46;100.00;97728.59;5027237;28;1546;-72
2023/10/17 07:29:33;;;;;;;;;;;5.50;99.90;;;4.50;100.00;97721.69;5029090;28;2161;-73
2023/10/17 07:32:02;;;;;;;;;;;5.60;99.90;;;4.43;100.00;97735.50;5049196;28;1906;-76
2023/10/17 07:34:33;;;;;;;;;;;5.60;99.90;;;4.52;100.00;97730.22;5042552;28;1538;-73
2023/10/17 07:37:22;;;;;;;;;;;5.60;99.90;;;4.74;100.00;97741.84;5027689;28;1599;-75
2023/10/17 07:42:42;;;;;;;;;;;5.70;99.90;;;4.76;100.00;97731.53;5030906;28;1696;-76
2023/10/17 07:45:15;;;;;;;;;;;5.80;99.90;;;4.96;100.00;97737.19;5032173;28;1356;-75
2023/10/17 07:47:51;;;;;;;;;;;5.90;99.90;;;4.94;100.00;97738.09;5017374;28;1496;-76
2023/10/17 07:50:20;;;;;;;;;;;6.00;99.90;;;5.07;100.00;97739.56;5045590;28;1699;-76
2023/10/17 07:52:50;;;;;;;;;;;6.00;99.90;;;5.08;100.00;97738.69;5044401;28;1910;-74
2023/10/17 07:55:21;;;;;;;;;;;6.10;99.90;;;5.00;100.00;97732.84;5042531;28;1650;-76
2023/10/17 07:57:55;;;;;;;;;;;6.10;99.90;;;4.95;100.00;97735.50;5013258;28;1658;-74
2023/10/17 08:00:33;;;;;;;;;;;6.10;99.90;;;5.07;100.00;97733.59;5032893;28;1391;-75
2023/10/17 08:03:27;;;;;;;;;;;6.10;99.90;;;4.90;100.00;97729.56;5039878;28;1495;-76
2023/10/17 08:08:35;;;;;;;;;;;6.10;99.90;;;5.47;100.00;97730.25;5028645;28;1897;-75
2023/10/17 08:11:20;;;;;;;;;;;6.20;99.90;;;5.40;100.00;97742.38;5021285;28;1625;-73
2023/10/17 08:13:48;;;;;;;;;;;6.30;99.90;;;5.48;100.00;97740.53;5042843;28;1887;-76
2023/10/17 08:16:55;;;;;;;;;;;6.40;99.90;;;5.46;100.00;97742.28;5023643;28;1407;-75
2023/10/17 08:19:22;;;;;;;;;;;6.40;99.90;;;5.62;100.00;97738.50;5028330;28;1606;-75
2023/10/17 08:27:40;;;;;;;;;;;6.70;99.90;;;5.78;100.00;97743.34;5027362;28;1694;-75
2023/10/17 08:30:14;;;;;;;;;;;6.80;99.90;;;5.78;100.00;97743.34;5044233;28;1512;-75
2023/10/17 08:35:39;;;;;;;;;;;6.90;99.90;;;5.68;100.00;97729.81;5040478;28;1568;-74
2023/10/17 08:38:07;;;;;;;;;;;6.80;99.90;;;5.82;100.00;97732.13;5025845;28;1566;-74
2023/10/17 08:43:14;;;;;;;;;;;6.90;99.90;;;5.99;100.00;97724.03;5042427;28;1445;-74
2023/10/17 08:45:44;;;;;;;;;;;6.90;99.90;;;5.84;100.00;97715.75;5031206;28;1385;-75
2023/10/17 08:48:11;;;;;;;;;;;6.90;99.90;;;5.64;100.00;97715.31;5026215;28;1511;-75
2023/10/17 08:50:39;;;;;;;;;;;6.90;99.90;;;6.01;100.00;97725.69;5029078;28;1464;-75
2023/10/17 08:53:19;;;;;;;;;;;7.00;99.90;;;5.97;100.00;97718.06;5045346;28;1979;-75
2023/10/17 08:55:51;;;;;;;;;;;7.00;99.90;;;6.06;100.00;97725.59;5017330;28;1430;-74
2023/10/17 08:58:24;;;;;;;;;;;7.00;99.90;;;6.15;100.00;97730.53;5013191;28;1430;-75
2023/10/17 09:00:55;;;;;;;;;;;7.10;99.90;;;6.10;100.00;97731.53;5029052;28;1463;-74
2023/10/17 09:03:35;;;;;;;;;;;7.00;99.90;;;6.36;100.00;97726.63;5044038;28;2067;-75
2023/10/17 09:11:31;;;;;;;;;;;7.40;99.90;;;6.48;100.00;97725.50;5022732;28;1396;-75
2023/10/17 09:14:16;;;;;;;;;;;7.50;99.90;;;6.86;100.00;97729.69;5028235;28;2263;-75
2023/10/17 09:16:50;;;;;;;;;;;7.60;99.90;;;6.84;100.00;97723.75;5029029;28;1382;-75
2023/10/17 09:19:21;;;;;;;;;;;7.70;99.90;;;6.73;100.00;97715.44;5026868;28;1284;-75
2023/10/17 09:21:49;;;;;;;;;;;7.70;99.90;;;6.90;100.00;97718.44;5025211;28;1359;-71
2023/10/17 09:24:32;;;;;;;;;;;7.80;99.90;;;7.08;100.00;97722.28;5043035;28;1501;-75
2023/10/17 09:27:06;;;;;;;;;;;8.00;99.90;;;7.47;100.00;97716.06;5038770;28;1598;-75
2023/10/17 09:29:49;;;;;;;;;;;8.20;99.90;;;6.97;100.00;97720.84;5031945;28;1522;-75
2023/10/17 09:32:35;;;;;;;;;;;8.10;99.90;;;7.05;100.00;97731.84;5030667;28;1343;-74
2023/10/17 09:35:04;;;;;;;;;;;8.00;99.90;;;7.02;100.00;97739.66;5024926;28;1375;-75
2023/10/17 09:37:32;;;;;;;;;;;8.10;99.90;;;7.04;100.00;97737.88;5038904;28;1406;-75
2023/10/17 09:40:03;;;;;;;;;;;8.10;99.90;;;7.07;100.00;97732.63;5022170;28;1916;-75
2023/10/17 09:42:30;;;;;;;;;;;8.10;99.90;;;7.26;100.00;97730.41;4997657;28;1427;-75
2023/10/17 09:44:57;;;;;;;;;;;8.20;99.90;;;7.25;100.00;97727.00;5024053;28;1431;-74
2023/10/17 09:47:27;;;;;;;;;;;8.30;99.90;;;7.35;100.00;97724.16;5024189;28;1630;-74
2023/10/17 09:49:56;;;;;;;;;;;8.40;99.90;;;7.47;100.00;97724.66;5022483;28;1565;-75
2023/10/17 09:52:28;;;;;;;;;;;8.50;99.90;;;7.51;100.00;97720.28;5027728;28;1423;-73
2023/10/17 09:54:58;;;;;;;;;;;8.50;99.90;;;7.84;100.00;97722.75;5027512;28;2023;-74
2023/10/17 09:57:25;;;;;;;;;;;8.70;99.90;;;7.56;100.00;97718.41;5026145;28;1290;-74
2023/10/17 10:00:27;;;;;;;;;;;8.70;99.90;;;7.42;100.00;97713.63;5012083;28;1513;-74
2023/10/17 10:02:56;;;;;;;;;;;8.60;99.90;;;7.67;100.00;97715.50;5037683;28;1424;-74
2023/10/17 10:05:40;;;;;;;;;;;8.70;99.90;;;7.72;100.00;97711.88;5024659;28;1417;-74
2023/10/17 10:08:27;;;;;;;;;;;8.80;99.90;;;7.78;100.00;97721.22;5048037;28;1036;-74
2023/10/17 10:10:55;;;;;;;;;;;8.70;99.90;;;7.95;100.00;97715.53;5047979;28;1384;-73
2023/10/17 10:13:24;;;;;;;;;;;8.80;99.90;;;7.76;100.00;97710.09;5049730;28;1984;-75
2023/10/17 10:15:58;;;;;;;;;;;8.80;99.90;;;7.64;100.00;97710.41;5040727;28;1401;-75
2023/10/17 10:18:35;;;;;;;;;;;8.90;99.90;;;8.05;100.00;97721.28;5032244;28;1360;-74
2023/10/17 10:21:03;;;;;;;;;;;8.90;99.90;;;8.05;100.00;97719.56;5049546;28;1284;-75
2023/10/17 10:23:39;;;;;;;;;;;9.00;99.90;;;7.75;100.00;97711.81;5032698;28;1622;-75
2023/10/17 10:26:16;;;;;;;;;;;8.90;99.90;;;7.63;100.00;97706.16;5046880;28;1412;-74
2023/10/17 10:28:46;;;;;;;;;;;8.90;99.90;;;8.04;100.00;97712.69;5041059;28;1744;-76
2023/10/17 10:31:23;;;;;;;;;;;8.90;99.90;;;8.19;100.00;97713.97;5032013;28;1190;-75
2023/10/17 10:33:54;;;;;;;;;;;9.00;99.90;;;8.23;100.00;97707.78;5047780;28;1991;-75
2023/10/17 10:36:26;;;;;;;;;;;9.10;99.90;;;8.10;100.00;97703.91;5029543;28;1403;-74
2023/10/17 10:38:55;;;;;;;;;;;9.10;99.90;;;7.95;100.00;97700.88;5028790;28;1542;-74
2023/10/17 10:41:25;;;;;;;;;;;9.20;99.90;;;7.85;100.00;97694.31;5042610;28;1490;-74
2023/10/17 10:43:59;;;;;;;;;;;9.10;99.90;;;8.14;100.00;97692.56;5029531;28;1726;-75
2023/10/17 10:46:28;;;;;;;;;;;9.00;99.90;;;8.31;100.00;97694.63;5042400;28;1515;-74
2023/10/17 10:48:56;;;;;;;;;;;9.10;99.90;;;8.22;100.00;97688.00;5043435;28;1357;-75
2023/10/17 10:51:26;;;;;;;;;;;9.30;99.90;;;8.48;100.00;97684.59;5045844;28;1696;-74
2023/10/17 10:53:56;;;;;;;;;;;9.40;99.90;;;8.32;100.00;97683.38;5045490;28;1886;-75
2023/10/17 10:56:26;;;;;;;;;;;9.30;99.90;;;8.16;100.00;97675.25;5031813;28;1513;-75
2023/10/17 10:58:57;;;;;;;;;;;9.30;99.90;;;8.24;100.00;97669.88;5030119;28;1334;-76
2023/10/17 11:01:25;;;;;;;;;;;9.20;99.90;;;8.36;100.00;97659.13;5016425;28;1421;-75
2023/10/17 11:03:53;;;;;;;;;;;9.20;99.90;;;8.33;100.00;97656.63;5030890;28;1558;-75
2023/10/17 11:06:27;;;;;;;;;;;9.20;99.90;;;8.30;100.00;97657.59;5027358;28;1400;-74
2023/10/17 11:08:54;;;;;;;;;;;9.30;99.90;;;8.43;100.00;97663.22;5034383;28;1410;-74
2023/10/17 11:11:22;;;;;;;;;;;9.30;99.90;;;8.55;100.00;97659.38;5042225;28;1462;-72
2023/10/17 11:13:51;;;;;;;;;;;9.40;99.90;;;8.92;100.00;97664.19;5024162;28;1985;-72
2023/10/17 11:16:24;;;;;;;;;;;9.60;99.90;;;9.32;100.00;97670.53;5013905;28;1427;-76
2023/10/17 11:18:52;;;;;;;;;;;9.80;99.90;;;9.52;100.00;97662.03;5024145;28;1344;-74
2023/10/17 11:21:21;;;;;;;;;;;10.10;99.90;;;9.22;100.00;97643.28;5044122;28;1399;-74
2023/10/17 11:23:50;;;;;;;;;;;10.20;99.90;;;9.20;100.00;97632.97;5026608;28;1060;-75
2023/10/17 11:26:21;;;;;;;;;;;10.20;99.90;;;9.67;100.00;97636.44;5043330;28;1429;-76
2023/10/17 11:28:56;;;;;;;;;;;10.30;99.90;;;9.76;100.00;97631.75;5027565;28;1640;-75
2023/10/17 11:31:24;;;;;;;;;;;10.50;99.90;;;9.73;100.00;97628.44;4998520;28;1494;-76
2023/10/17 11:34:03;;;;;;;;;;;10.60;99.90;;;9.66;100.00;97634.75;5013450;28;1930;-76
2023/10/17 11:36:36;;;;;;;;;;;10.70;99.90;;;10.39;100.00;97633.63;5046584;28;1360;-75
2023/10/17 11:39:05;;;;;;;;;;;10.90;99.90;;;10.36;100.00;97621.63;5030224;28;1328;-75
2023/10/17 11:41:53;;;;;;;;;;;11.00;99.90;;;10.28;100.00;97628.84;5040672;28;1689;-76
2023/10/17 11:44:24;;;;;;;;;;;11.20;99.90;;;10.66;100.00;97629.88;5026875;28;1372;-75
2023/10/17 11:47:01;;;;;;;;;;;11.20;99.90;;;11.02;100.00;97620.59;5030097;28;1455;-74
2023/10/17 11:49:41;;;;;;;;;;;11.40;99.90;;;10.91;100.00;97620.22;5026285;28;1694;-76
2023/10/17 11:52:09;;;;;;;;;;;11.60;99.90;;;10.41;100.00;97637.00;5032059;28;1418;-75
2023/10/17 11:55:01;;;;;;;;;;;11.50;99.90;;;10.64;100.00;97639.50;5009418;28;1988;-76
2023/10/17 11:57:31;;;;;;;;;;;11.50;99.90;;;10.46;100.00;97646.28;5042181;28;1442;-76
2023/10/17 12:02:47;;;;;;;;;;;11.50;99.90;;;10.39;100.00;97647.44;5031506;28;1356;-75
2023/10/17 12:05:18;;;;;;;;;;;11.50;99.90;;;10.72;100.00;97641.78;5026331;28;1270;-75
2023/10/17 12:07:53;;;;;;;;;;;11.50;99.90;;;11.08;100.00;97633.31;5008214;28;1577;-76
2023/10/17 12:10:21;;;;;;;;;;;11.50;99.90;;;10.65;100.00;97635.13;5022047;28;1370;-73
2023/10/17 12:13:04;;;;;;;;;;;11.60;99.90;;;10.75;100.00;97628.66;5021053;28;1364;-74
2023/10/17 12:15:31;;;;;;;;;;;11.60;99.90;;;11.00;100.00;97625.84;5043417;28;1890;-74
2023/10/17 12:17:59;;;;;;;;;;;11.80;99.90;;;10.94;100.00;97625.28;5040175;28;1435;-74
2023/10/17 12:20:26;;;;;;;;;;;11.80;99.90;;;10.89;100.00;97608.13;5026734;28;1284;-74
2023/10/17 12:22:57;;;;;;;;;;;11.80;99.90;;;11.13;100.00;97615.78;5040723;28;1411;-75
2023/10/17 12:25:24;;;;;;;;;;;11.90;99.90;;;11.45;100.00;97616.09;5022742;28;1373;-74
2023/10/17 12:27:52;;;;;;;;;;;12.00;99.90;;;11.28;100.00;97616.84;5030882;28;1397;-76
2023/10/17 12:30:24;;;;;;;;;;;12.10;99.90;;;11.26;100.00;97600.47;5033837;28;1618;-77
2023/10/17 12:32:51;;;;;;;;;;;12.00;99.90;;;11.08;100.00;97594.34;5007862;28;1478;-74
2023/10/17 12:35:21;;;;;;;;;;;12.00;99.90;;;11.43;100.00;97584.97;5028977;28;1890;-74
2023/10/17 12:37:57;;;;;;;;;;;12.00;99.90;;;11.66;100.00;97585.66;5044147;28;1395;-76
2023/10/17 12:40:24;;;;;;;;;;;12.10;99.90;;;12.05;100.00;97572.53;5017041;28;1394;-76
2023/10/17 12:42:53;;;;;;;;;;;12.30;99.90;;;11.94;100.00;97569.63;5029498;28;1450;-72
2023/10/17 12:45:20;;;;;;;;;;;12.30;99.90;;;11.95;100.00;97563.50;5029972;28;1459;-74
2023/10/17 12:47:47;;;;;;;;;;;12.40;99.90;;;12.28;100.00;97563.59;5030085;28;1472;-77
2023/10/17 12:50:18;;;;;;;;;;;12.50;99.90;;;12.47;100.00;97560.91;5023804;28;1436;-76
2023/10/17 12:52:46;;;;;;;;;;;12.70;99.90;;;12.32;100.00;97562.53;5025680;28;1699;-76
2023/10/17 12:55:13;;;;;;;;;;;12.80;99.90;;;12.82;100.00;97567.84;5044522;28;1910;-76
2023/10/17 12:57:40;;;;;;;;;;;13.00;99.90;;;12.62;100.00;97556.69;5028367;28;1369;-76
2023/10/17 13:00:11;;;;;;;;;;;13.10;99.90;;;12.91;100.00;97552.59;5024820;28;1629;-76
2023/10/17 13:02:39;;;;;;;;;;;13.10;99.90;;;12.71;100.00;97561.44;5025753;28;1443;-75
2023/10/17 13:05:09;;;;;;;;;;;13.00;99.90;;;13.13;100.00;97554.06;5043624;28;1368;-76
2023/10/17 13:07:37;;;;;;;;;;;13.10;99.90;;;12.62;100.00;97559.31;5017363;28;1459;-74
2023/10/17 13:10:06;;;;;;;;;;;13.20;99.90;;;12.82;100.00;97555.69;5007202;28;1402;-76
2023/10/17 13:12:33;;;;;;;;;;;13.20;99.90;;;13.44;100.00;97542.84;5039715;28;1382;-74
2023/10/17 13:15:00;;;;;;;;;;;13.30;99.90;;;14.40;100.00;97535.69;5010779;28;1906;-74
2023/10/17 13:17:28;;;;;;;;;;;13.70;99.90;;;14.11;100.00;97538.22;5028349;28;1046;-76
2023/10/17 13:19:57;;;;;;;;;;;13.90;99.90;;;14.52;100.00;97534.13;5025048;28;1383;-74
2023/10/17 13:22:24;;;;;;;;;;;14.00;99.90;;;14.17;100.00;97530.03;5040381;28;1470;-75
2023/10/17 13:24:51;;;;;;;;;;;14.20;99.90;;;15.68;100.00;97518.28;5008541;28;1491;-75
2023/10/17 13:27:21;;;;;;;;;;;14.40;99.90;;;15.92;100.00;97510.69;5042257;28;1385;-75
2023/10/17 13:29:52;;;;;;;;;;;14.60;99.90;;;15.71;100.00;97501.59;5044253;28;1458;-75
2023/10/17 13:32:19;;;;;;;;;;;15.30;99.90;;;16.30;100.00;97504.66;5042560;28;1502;-75
2023/10/17 13:34:46;;;;;;;;;;;15.30;99.90;;;14.84;100.00;97511.31;5039209;28;1902;-75
2023/10/17 13:37:13;;;;;;;;;;;15.20;99.90;;;14.52;100.00;97505.41;5045024;28;1391;-76
2023/10/17 13:39:41;;;;;;;;;;;14.70;99.90;;;14.21;100.00;97518.50;5006713;28;1704;-75
2023/10/17 13:42:09;;;;;;;;;;;14.50;99.90;;;13.76;100.00;97521.97;5039636;28;1622;-74
2023/10/17 13:44:36;;;;;;;;;;;14.30;99.90;;;13.16;100.00;97517.44;5038534;28;1722;-73
2023/10/17 13:47:03;;;;;;;;;;;13.90;99.90;;;14.30;100.00;97511.91;5038576;28;1528;-73
2023/10/17 13:49:30;;;;;;;;;;;14.00;99.90;;;16.36;100.00;97491.16;5042612;28;1560;-73
2023/10/17 13:51:58;;;;;;;;;;;14.70;99.90;;;14.68;100.00;97497.50;5021540;28;1640;-73
2023/10/17 13:54:34;;;;;;;;;;;14.80;99.90;;;14.99;100.00;97499.94;5025571;28;1898;-73
2023/10/17 13:57:06;;;;;;;;;;;14.90;99.90;;;15.56;100.00;97490.31;5021948;28;1405;-75
2023/10/17 13:59:46;;;;;;;;;;;14.90;99.90;;;15.02;100.00;97497.13;5024479;28;1544;-75
2023/10/17 14:02:17;;;;;;;;;;;15.00;99.90;;;16.43;100.00;97484.56;5013219;28;1450;-75
2023/10/17 14:04:45;;;;;;;;;;;15.10;99.90;;;16.99;100.00;97465.91;5027508;28;1581;-74